DW9840 Weather Reports


time (UTC)temp
F
wind
direction
speed
knots
gust
knots
rain 1hr
in
rain 24hr
in
rain mn
in
humidity
%
barometer
mb
20190523131644 0 0.0 0.0 0.00 0.00 0.00 1006.7
20190523130121 0 0.0 0.0 0.00 0.00 0.00 1006.7
20190523124642 0 0.0 0.0 0.00 0.00 0.00 1006.7
20190523123051 0 0.0 0.0 0.00 0.00 0.00 1006.6
20190523121616 0 0.0 0.0 0.00 0.00 0.00 1006.7
20190523120036 0 0.0 0.0 0.00 0.00 0.00 1006.8
20190523114551 56 134 0.0 1.7 0.00 0.00 0.00 73 1006.9
20190523113027 58 39 0.0 0.0 0.00 0.00 0.00 74 1006.9
20190523111527 58 30 0.0 0.0 0.00 0.00 0.00 74 1006.8
20190523110029 58 58 0.0 0.0 0.00 0.00 0.00 74 1006.9
20190523104523 58 50 0.9 2.6 0.00 0.00 0.00 74 1007.0
20190523103020 58 72 1.7 3.5 0.00 0.00 0.00 73 1006.9
20190523101530 58 345 0.0 2.6 0.00 0.00 0.00 73 1007.0
20190523100046 58 76 0.0 0.0 0.00 0.00 0.00 64 1006.9
20190523094539 57 159 0.0 0.0 0.00 0.00 0.00 66 1007.0
20190523093024 58 159 0.0 0.0 0.00 0.00 0.00 67 1006.9
20190523091509 58 200 0.0 0.0 0.00 0.00 0.00 70 1007.0
20190523090005 58 214 0.0 0.0 0.00 0.00 0.00 73 1007.2
20190523084504 59 266 0.0 0.9 0.00 0.00 0.00 74 1007.3
20190523083009 59 276 0.0 0.0 0.00 0.00 0.00 72 1007.4
20190523081501 59 145 0.0 0.0 0.00 0.00 0.00 72 1007.4
20190523080138 59 25 0.0 0.0 0.00 0.00 0.00 73 1007.5
20190523074708 59 26 0.0 0.0 0.00 0.00 0.00 74 1007.5
20190523073257 60 26 0.0 0.0 0.00 0.00 0.00 75 1007.6
20190523071738 60 76 0.0 0.9 0.00 0.00 0.00 74 1007.7
20190523070301 61 321 0.0 0.0 0.00 0.00 0.00 74 1007.7
20190523064629 61 330 0.9 3.5 0.00 0.00 0.00 74 1007.9
20190523063112 62 272 0.0 0.0 0.00 0.00 0.00 73 1007.8
20190523061621 63 25 0.0 0.0 0.00 0.00 0.00 71 1007.9
20190523060138 64 352 0.9 3.5 0.00 0.00 0.00 71 1007.8
20190523054638 64 21 0.0 5.2 0.00 0.00 0.00 70 1007.8
20190523053106 65 252 0.9 5.2 0.00 0.00 0.00 70 1007.8
20190523051608 64 103 0.0 2.6 0.00 0.00 0.00 70 1007.6
20190523050033 64 113 0.0 0.0 0.00 0.00 0.00 71 1007.7
20190523044533 64 173 0.0 0.0 0.00 0.00 0.00 71 1007.5
20190523043103 65 211 0.0 2.6 0.00 0.00 0.00 71 1007.6
20190523041505 66 203 0.9 3.5 0.00 0.00 0.00 69 1007.5
20190523034646 69 281 0.9 4.3 0.00 0.00 0.00 64 1007.1
20190523033153 71 301 2.6 6.1 0.00 0.00 0.00 57 1007.0
20190523031648 72 280 0.9 5.2 0.00 0.00 0.00 56 1006.9
20190523030143 74 13 4.3 9.6 0.00 0.00 0.00 53 1006.9
20190523024636 75 320 0.9 6.1 0.00 0.00 0.00 51 1006.6
20190523023048 76 314 0.9 9.6 0.00 0.00 0.00 50 1006.6
20190523021608 77 328 4.3 8.7 0.00 0.00 0.00 46 1006.5
20190523020059 78 348 1.7 5.2 0.00 0.00 0.00 45 1006.4
20190523014636 78 230 0.9 7.0 0.00 0.00 0.00 45 1006.4
20190523013100 78 13 0.9 6.1 0.00 0.00 0.00 46 1006.5
20190523011543 78 270 3.5 9.6 0.00 0.00 0.00 45 1006.5
20190523010041 79 323 1.7 7.0 0.00 0.00 0.00 44 1006.6
20190523004541 78 237 1.7 6.1 0.00 0.00 0.00 46 1006.6
20190523003008 77 13 4.3 7.8 0.00 0.00 0.00 45 1006.6
20190523001507 76 193 1.7 6.1 0.00 0.00 0.00 52 1006.7
20190523000146 75 108 2.6 5.2 0.00 0.00 0.00 54 1006.8
20190522234720 75 156 2.6 6.1 0.00 0.00 0.00 52 1006.9
20190522233209 74 150 3.5 7.0 0.00 0.00 0.00 53 1007.0
20190522231613 74 211 5.2 9.6 0.00 0.00 0.00 54 1007.0
20190522230134 74 229 3.5 11.3 0.00 0.00 0.00 53 1007.1
20190522224628 75 242 5.2 9.6 0.00 0.00 0.00 53 1007.2
20190522223114 75 263 5.2 13.0 0.00 0.00 0.00 52 1007.3
20190522221611 74 236 4.3 8.7 0.00 0.00 0.00 53 1007.6
20190522220111 73 190 2.6 8.7 0.00 0.00 0.00 53 1007.6
20190522214550 74 218 5.2 9.6 0.00 0.00 0.00 54 1007.8
20190522213053 74 160 4.3 10.4 0.00 0.00 0.00 51 1007.8
20190522211510 73 253 3.5 8.7 0.00 0.00 0.00 54 1008.0
20190522210022 74 228 5.2 12.2 0.00 0.00 0.00 53 1008.2
20190522204655 74 290 1.7 9.6 0.00 0.00 0.00 55 1008.3
20190522203240 74 280 0.9 5.2 0.00 0.00 0.00 52 1008.4
20190522201804 75 260 1.7 6.1 0.00 0.00 0.00 44 1008.5
20190522200118 74 219 0.0 3.5 0.00 0.00 0.00 45 1008.5
20190522194607 74 236 1.7 6.1 0.00 0.00 0.00 44 1008.5
20190522193127 72 330 0.9 8.7 0.00 0.00 0.00 46 1008.6
20190522191619 72 211 1.7 5.2 0.00 0.00 0.00 47 1008.7
20190522190054 71 304 1.7 7.0 0.00 0.00 0.00 49 1008.8
20190522184557 71 320 0.9 6.1 0.00 0.00 0.00 50 1008.8
20190522183041 69 1 0.9 5.2 0.00 0.00 0.00 53 1008.9
20190522181540 68 274 0.9 5.2 0.00 0.00 0.00 56 1009.1
20190522180013 67 50 1.7 4.3 0.00 0.00 0.00 55 1009.1
20190522174507 65 290 0.9 4.3 0.00 0.00 0.00 60 1009.2
20190522173011 64 278 1.7 4.3 0.00 0.00 0.00 61 1009.4
20190522171710 63 326 0.9 7.0 0.00 0.00 0.00 62 1009.5
20190522170136 62 271 0.9 3.5 0.00 0.00 0.00 68 1009.6
20190522164634 60 338 2.6 5.2 0.00 0.00 0.00 68 1009.8
20190522163128 60 278 0.9 3.5 0.00 0.00 0.00 70 1009.8
20190522161609 58 337 0.0 7.8 0.00 0.00 0.00 73 1010.0
20190522160107 58 323 3.5 7.8 0.00 0.00 0.00 72 1010.0
20190522154631 57 34 0.0 4.3 0.00 0.00 0.00 74 1010.0
20190522153107 56 1 0.9 7.8 0.00 0.00 0.00 75 1009.9
20190522151551 55 65 1.7 4.3 0.00 0.00 0.00 76 1010.0
20190522150040 56 44 3.5 6.1 0.00 0.00 0.00 75 1009.9
20190522144516 55 293 1.7 4.3 0.00 0.01 0.00 76 1009.8
20190522143021 55 86 0.0 1.7 0.00 0.01 0.00 76 1009.6
20190522141505 54 41 0.0 2.6 0.00 0.01 0.00 67 1009.6
20190522140217 54 112 0.0 0.0 0.00 0.01 0.00 16 1009.6
20190522134820 54 72 0.0 0.0 0.00 0.01 0.00 3 1009.6
20190522133142 0 0.0 0.0 0.00 0.01 0.00 1009.3